Time;durP1;ratioP1;P1;durP2;ratioP2;P2;SDS_P1;SDS_P2;PMS_P1;PMS_P2;Temp;Humidity;BMP_temperature;BMP_pressure;BME280_temperature;BME280_humidity;BME280_pressure;Samples;Min_cycle;Max_cycle;Signal;HPM_P1;HPM_P2
2021/12/11 00:00:44;;;;;;;1.20;1.20;;;;;;;2.82;100.00;95337.44;5092693;28;20421;-67
2021/12/11 00:03:26;;;;;;;1.50;1.40;;;;;;;2.66;100.00;95332.81;5094254;28;20478;-68
2021/12/11 00:06:05;;;;;;;1.38;1.30;;;;;;;2.77;100.00;95342.44;5093958;28;20750;-67
2021/12/11 00:08:32;;;;;;;1.20;1.20;;;;;;;2.62;100.00;95341.22;5094272;28;20481;-69
2021/12/11 00:11:14;;;;;;;1.20;1.20;;;;;;;2.73;100.00;95341.28;5077249;28;20394;-67
2021/12/11 00:13:40;;;;;;;1.33;1.23;;;;;;;2.65;100.00;95349.31;5092435;28;20386;-69
2021/12/11 00:16:09;;;;;;;1.20;1.20;;;;;;;2.76;100.00;95358.97;5094006;28;20480;-68
2021/12/11 00:18:35;;;;;;;1.40;1.30;;;;;;;2.62;100.00;95356.72;5094062;28;20410;-67
2021/12/11 00:21:07;;;;;;;1.33;1.27;;;;;;;2.70;100.00;95366.78;5093999;28;20390;-67
2021/12/11 00:23:38;;;;;;;1.20;1.20;;;;;;;2.65;100.00;95364.84;5093818;28;20495;-67
2021/12/11 00:26:05;;;;;;;1.50;1.40;;;;;;;2.74;100.00;95371.31;5092696;28;20394;-68
2021/12/11 00:28:31;;;;;;;1.48;1.38;;;;;;;2.70;100.00;95377.13;5093501;28;20405;-68
2021/12/11 00:30:58;;;;;;;1.38;1.27;;;;;;;2.82;100.00;95372.84;5094028;28;20398;-68
2021/12/11 00:33:31;;;;;;;1.30;1.20;;;;;;;2.83;100.00;95382.19;5109428;28;20472;-67
2021/12/11 00:35:57;;;;;;;1.43;1.33;;;;;;;2.78;100.00;95389.81;5093676;28;20401;-67
2021/12/11 00:38:34;;;;;;;1.67;1.50;;;;;;;2.75;100.00;95395.41;5093071;28;20423;-68
2021/12/11 00:41:01;;;;;;;1.30;1.20;;;;;;;2.77;100.00;95398.56;5078314;28;20404;-69
2021/12/11 00:43:33;;;;;;;1.90;1.70;;;;;;;2.65;100.00;95403.63;5093105;28;20862;-67
2021/12/11 00:45:59;;;;;;;1.80;1.70;;;;;;;2.71;100.00;95407.97;5093942;28;20423;-67
2021/12/11 00:48:26;;;;;;;1.60;1.50;;;;;;;2.82;100.00;95416.84;5094000;28;20393;-67
2021/12/11 00:50:56;;;;;;;2.20;1.70;;;;;;;2.75;100.00;95418.69;5093427;28;20386;-67
2021/12/11 00:53:29;;;;;;;1.70;1.60;;;;;;;2.99;100.00;95428.25;5093145;28;20401;-68
2021/12/11 00:56:03;;;;;;;1.67;1.58;;;;;;;2.85;100.00;95434.50;5093193;28;20959;-67
2021/12/11 00:58:31;;;;;;;1.52;1.42;;;;;;;2.80;100.00;95439.53;5093215;28;20511;-68
2021/12/11 01:01:06;;;;;;;1.70;1.60;;;;;;;2.81;100.00;95443.69;5093305;28;20483;-67
2021/12/11 01:04:02;;;;;;;1.67;1.58;;;;;;;2.90;100.00;95450.19;5091440;28;20905;-67
2021/12/11 01:06:38;;;;;;;1.60;1.50;;;;;;;2.91;100.00;95449.19;5093079;28;20433;-67
2021/12/11 01:09:08;;;;;;;1.38;1.38;;;;;;;2.95;100.00;95452.97;5092458;28;20430;-67
2021/12/11 01:11:43;;;;;;;1.30;1.30;;;;;;;2.97;100.00;95455.31;5093292;28;20389;-68
2021/12/11 01:14:20;;;;;;;1.48;1.38;;;;;;;3.13;100.00;95457.38;5092746;28;20382;-67
2021/12/11 01:17:22;;;;;;;1.25;1.25;;;;;;;2.97;100.00;95471.63;5092910;28;20414;-67
2021/12/11 01:19:51;;;;;;;1.48;1.30;;;;;;;2.86;100.00;95480.09;5065123;28;20409;-67
2021/12/11 01:22:34;;;;;;;1.42;1.30;;;;;;;2.90;100.00;95482.03;5092955;28;20394;-68
2021/12/11 01:25:05;;;;;;;1.30;1.20;;;;;;;3.01;100.00;95479.78;5092806;28;20390;-67
2021/12/11 01:27:32;;;;;;;1.17;1.10;;;;;;;2.99;100.00;95492.13;5092321;28;20905;-68
2021/12/11 01:30:00;;;;;;;1.33;1.33;;;;;;;2.98;100.00;95498.31;5092378;28;20822;-67
2021/12/11 01:32:29;;;;;;;1.30;1.30;;;;;;;2.98;100.00;95506.88;5092714;28;20391;-67
2021/12/11 01:34:57;;;;;;;1.20;1.20;;;;;;;2.91;100.00;95514.66;5092745;28;20390;-67
2021/12/11 01:37:22;;;;;;;1.38;1.38;;;;;;;2.72;100.00;95518.19;5092690;28;20422;-67
2021/12/11 01:39:50;;;;;;;1.43;1.40;;;;;;;2.68;100.00;95516.22;5092675;28;20886;-68
2021/12/11 01:42:27;;;;;;;1.35;1.25;;;;;;;2.80;100.00;95536.03;5092574;28;20421;-68
2021/12/11 01:44:55;;;;;;;1.20;1.20;;;;;;;2.73;100.00;95537.88;5091214;28;20401;-67
2021/12/11 01:47:27;;;;;;;1.52;1.40;;;;;;;2.86;100.00;95547.34;5092773;28;20405;-68
2021/12/11 01:49:56;;;;;;;1.65;1.55;;;;;;;2.79;100.00;95549.97;5092310;28;20394;-68
2021/12/11 01:52:32;;;;;;;1.50;1.50;;;;;;;2.32;100.00;95556.41;5092352;28;20414;-68
2021/12/11 01:55:00;;;;;;;1.85;1.70;;;;;;;2.63;100.00;95560.81;5092170;28;20398;-68
2021/12/11 01:57:29;;;;;;;1.88;1.77;;;;;;;2.41;100.00;95564.69;5092435;28;20410;-69
2021/12/11 02:00:06;;;;;;;1.70;1.60;;;;;;;2.48;100.00;95571.44;5091404;28;20413;-68
2021/12/11 02:02:35;;;;;;;1.63;1.52;;;;;;;2.34;100.00;95572.47;5091958;28;20758;-68
2021/12/11 02:05:03;;;;;;;1.90;1.80;;;;;;;2.25;100.00;95581.47;5091777;28;20420;-68
2021/12/11 02:07:41;;;;;;;1.83;1.73;;;;;;;2.07;100.00;95583.91;5091658;28;20401;-68
2021/12/11 02:10:16;;;;;;;1.70;1.60;;;;;;;1.95;100.00;95588.13;5091265;28;20477;-68
2021/12/11 02:12:43;;;;;;;1.83;1.73;;;;;;;1.80;100.00;95596.09;5091053;28;20382;-68
2021/12/11 02:15:19;;;;;;;1.73;1.63;;;;;;;1.69;100.00;95599.28;5091826;28;20378;-68
2021/12/11 02:17:53;;;;;;;1.92;1.83;;;;;;;1.65;100.00;95604.06;5091919;28;20404;-68
2021/12/11 02:20:28;;;;;;;1.80;1.70;;;;;;;1.61;100.00;95613.22;5092076;28;20390;-67
2021/12/11 02:22:55;;;;;;;1.90;1.80;;;;;;;1.55;100.00;95608.03;5090984;28;20394;-68
2021/12/11 02:25:26;;;;;;;2.10;2.00;;;;;;;1.46;100.00;95619.53;5092000;28;20390;-68
2021/12/11 02:27:56;;;;;;;1.67;1.60;;;;;;;1.39;100.00;95624.72;5091738;28;20401;-68
2021/12/11 02:30:26;;;;;;;1.73;1.70;;;;;;;1.48;100.00;95631.28;5090941;28;20475;-69
2021/12/11 02:33:31;;;;;;;1.80;1.70;;;;;;;1.31;100.00;95629.28;5089851;28;20410;-68
2021/12/11 02:36:09;;;;;;;1.60;1.50;;;;;;;1.00;100.00;95640.16;5009799;28;20408;-67
2021/12/11 02:38:39;;;;;;;1.40;1.40;;;;;;;0.99;100.00;95639.34;5083427;28;20499;-68
2021/12/11 02:41:09;;;;;;;1.33;1.30;;;;;;;0.86;100.00;95646.25;5091362;28;20401;-67
2021/12/11 02:43:40;;;;;;;1.20;1.20;;;;;;;0.92;100.00;95656.59;5091695;28;20715;-67
2021/12/11 02:47:03;;;;;;;1.10;1.10;;;;;;;0.88;100.00;95667.50;5091661;28;20397;-67
2021/12/11 02:49:38;;;;;;;1.35;1.35;;;;;;;0.72;100.00;95666.06;5004646;28;20413;-67
2021/12/11 02:52:40;;;;;;;1.30;1.30;;;;;;;0.84;100.00;95675.59;5065905;28;20895;-67
2021/12/11 02:55:35;;;;;;;1.48;1.35;;;;;;;1.03;100.00;95676.66;5090614;28;20963;-68
2021/12/11 02:58:15;;;;;;;1.20;1.20;;;;;;;0.86;100.00;95678.00;5079154;28;20409;-67
2021/12/11 03:00:49;;;;;;;1.10;1.10;;;;;;;0.97;100.00;95685.16;5090101;28;20410;-67
2021/12/11 03:03:17;;;;;;;1.20;1.20;;;;;;;1.04;100.00;95680.03;5075463;28;20392;-68
2021/12/11 03:05:57;;;;;;;1.10;1.10;;;;;;;1.15;100.00;95689.78;5090266;28;20378;-68
2021/12/11 03:08:22;;;;;;;1.10;1.10;;;;;;;0.89;100.00;95692.31;5090456;28;20390;-67
2021/12/11 03:10:52;;;;;;;1.10;1.10;;;;;;;0.92;100.00;95694.47;5091104;28;20390;-67
2021/12/11 03:13:18;;;;;;;1.00;1.00;;;;;;;0.97;100.00;95695.50;5091542;28;20771;-68
2021/12/11 03:15:44;;;;;;;0.90;0.90;;;;;;;1.05;100.00;95694.53;5090063;28;20436;-68
2021/12/11 03:18:11;;;;;;;1.00;1.00;;;;;;;1.18;100.00;95705.66;5091220;28;20830;-68
2021/12/11 03:20:38;;;;;;;0.80;0.80;;;;;;;1.22;100.00;95700.94;5091416;28;20378;-68
2021/12/11 03:23:07;;;;;;;1.30;1.20;;;;;;;1.17;100.00;95714.41;5090939;28;20879;-67
2021/12/11 03:25:33;;;;;;;1.25;1.25;;;;;;;1.24;100.00;95711.84;5095229;28;20882;-68
2021/12/11 03:27:58;;;;;;;1.13;1.13;;;;;;;1.32;100.00;95719.41;5095298;28;20398;-68
2021/12/11 03:30:31;;;;;;;1.30;1.30;;;;;;;1.27;100.00;95726.16;5095270;28;20870;-68
2021/12/11 03:33:03;;;;;;;1.50;1.40;;;;;;;1.29;100.00;95737.84;5095120;28;20401;-68
2021/12/11 03:35:28;;;;;;;1.30;1.30;;;;;;;1.44;100.00;95740.28;5095112;28;20492;-68
2021/12/11 03:37:56;;;;;;;1.38;1.38;;;;;;;1.35;100.00;95754.34;5094939;28;20414;-68
2021/12/11 03:40:21;;;;;;;1.30;1.30;;;;;;;1.39;100.00;95755.56;5094600;28;20394;-69
2021/12/11 03:42:49;;;;;;;1.30;1.30;;;;;;;1.34;100.00;95763.88;5094998;28;20447;-68
2021/12/11 03:45:20;;;;;;;1.70;1.60;;;;;;;1.42;100.00;95771.47;5094391;28;20947;-68
2021/12/11 03:47:50;;;;;;;1.40;1.35;;;;;;;1.28;100.00;95779.38;5094970;28;20406;-68
2021/12/11 03:50:18;;;;;;;1.60;1.50;;;;;;;1.29;100.00;95773.19;5094820;28;20394;-69
2021/12/11 03:52:46;;;;;;;1.90;1.80;;;;;;;1.32;100.00;95788.31;5078634;28;20386;-68
2021/12/11 03:55:18;;;;;;;2.70;1.90;;;;;;;1.46;100.00;95785.56;5094954;28;20451;-68
2021/12/11 03:57:44;;;;;;;1.60;1.60;;;;;;;1.38;100.00;95795.28;5094322;28;20420;-68
2021/12/11 04:00:16;;;;;;;2.00;1.90;;;;;;;1.20;100.00;95800.97;5093989;28;20414;-68
2021/12/11 04:02:43;;;;;;;2.10;1.90;;;;;;;1.36;100.00;95800.63;5094684;28;20402;-68
2021/12/11 04:05:09;;;;;;;2.05;1.95;;;;;;;1.32;100.00;95812.34;5094645;28;20413;-67
2021/12/11 04:07:43;;;;;;;2.13;2.03;;;;;;;1.34;100.00;95810.34;5094707;28;20393;-68
2021/12/11 04:10:14;;;;;;;2.05;1.95;;;;;;;1.31;100.00;95813.31;5094049;28;20382;-67
2021/12/11 04:12:40;;;;;;;2.20;2.10;;;;;;;1.23;100.00;95816.84;5094746;28;20393;-68
2021/12/11 04:15:07;;;;;;;2.40;2.20;;;;;;;1.24;100.00;95822.81;5093729;28;20839;-68
2021/12/11 04:17:33;;;;;;;2.10;2.00;;;;;;;1.34;100.00;95841.31;5094157;28;20501;-67
2021/12/11 04:20:03;;;;;;;2.33;2.22;;;;;;;1.30;100.00;95842.69;5093957;28;20486;-67
2021/12/11 04:22:28;;;;;;;2.40;2.30;;;;;;;1.24;100.00;95843.44;5094033;28;20397;-67
2021/12/11 04:24:55;;;;;;;2.43;2.23;;;;;;;1.21;100.00;95857.56;5094298;28;20394;-67
2021/12/11 04:27:21;;;;;;;2.20;2.10;;;;;;;1.13;100.00;95849.16;5094511;28;20433;-69
2021/12/11 04:29:49;;;;;;;2.30;2.20;;;;;;;1.22;100.00;95859.16;5093877;28;20402;-67
2021/12/11 04:32:15;;;;;;;2.33;2.22;;;;;;;1.37;100.00;95858.22;5093778;28;20402;-67
2021/12/11 04:34:41;;;;;;;2.33;2.22;;;;;;;1.26;100.00;95872.47;5093060;28;20386;-67
2021/12/11 04:37:13;;;;;;;2.47;2.38;;;;;;;1.36;100.00;95870.31;5093865;28;20421;-67
2021/12/11 04:39:42;;;;;;;2.38;2.28;;;;;;;1.11;100.00;95875.16;5093946;28;20483;-67
2021/12/11 04:42:38;;;;;;;2.40;2.30;;;;;;;1.34;100.00;95882.59;5093539;28;20398;-70
2021/12/11 04:45:07;;;;;;;2.70;2.50;;;;;;;1.47;100.00;95887.84;5093629;28;20398;-67
2021/12/11 04:47:49;;;;;;;3.03;2.83;;;;;;;1.45;100.00;95889.03;5093529;28;20567;-68
2021/12/11 04:50:25;;;;;;;3.00;2.80;;;;;;;1.48;100.00;95896.38;5093569;28;20393;-67
2021/12/11 04:52:58;;;;;;;2.42;2.33;;;;;;;1.42;100.00;95897.16;5091631;28;20751;-67
2021/12/11 04:55:48;;;;;;;2.70;2.50;;;;;;;1.49;100.00;95905.72;5093562;28;20439;-67
2021/12/11 04:58:54;;;;;;;2.40;2.30;;;;;;;1.39;100.00;95910.44;5093349;28;20418;-67
2021/12/11 05:06:58;;;;;;;2.53;2.42;;;;;;;1.47;100.00;95931.72;5093203;28;20389;-67
2021/12/11 05:15:17;;;;;;;3.58;3.30;;;;;;;1.51;100.00;95943.25;5069688;28;20488;-67
2021/12/11 05:17:43;;;;;;;3.33;3.13;;;;;;;1.36;100.00;95952.91;5092880;28;20417;-69
2021/12/11 05:20:11;;;;;;;3.35;3.15;;;;;;;1.64;100.00;95952.88;5093150;28;20390;-67
2021/12/11 05:22:37;;;;;;;3.70;3.40;;;;;;;1.71;100.00;95965.81;5093240;28;20469;-67
2021/12/11 05:25:04;;;;;;;3.28;3.08;;;;;;;1.65;100.00;95967.38;5091382;28;20431;-67
2021/12/11 05:27:30;;;;;;;3.28;3.08;;;;;;;1.72;100.00;95972.59;5092611;28;20878;-67
2021/12/11 05:29:56;;;;;;;3.63;3.33;;;;;;;1.73;100.00;95971.59;5093308;28;20413;-67
2021/12/11 05:32:25;;;;;;;3.10;2.90;;;;;;;1.60;100.00;95983.47;5092524;28;20394;-68
2021/12/11 05:34:50;;;;;;;3.37;3.17;;;;;;;1.65;100.00;95983.69;5093151;28;20415;-67
2021/12/11 05:37:16;;;;;;;3.30;3.10;;;;;;;1.72;100.00;95996.63;5092358;28;20858;-67
2021/12/11 05:39:42;;;;;;;3.50;3.30;;;;;;;1.54;100.00;95989.38;5093046;28;20851;-67
2021/12/11 05:42:09;;;;;;;3.05;2.85;;;;;;;1.61;100.00;96000.56;5092684;28;20476;-67
2021/12/11 05:44:34;;;;;;;3.20;3.00;;;;;;;1.75;100.00;96010.94;5092357;28;20401;-68
2021/12/11 05:47:02;;;;;;;3.53;3.33;;;;;;;1.83;100.00;96021.13;5091501;28;20402;-68
2021/12/11 05:49:29;;;;;;;3.40;3.20;;;;;;;1.74;100.00;96010.13;5076145;28;20398;-67
2021/12/11 05:51:55;;;;;;;3.30;3.10;;;;;;;1.60;100.00;96022.19;5092262;28;20871;-67
2021/12/11 05:54:24;;;;;;;3.20;3.00;;;;;;;1.69;100.00;96022.81;5092158;28;20400;-67
2021/12/11 05:56:59;;;;;;;4.00;3.70;;;;;;;1.70;100.00;96031.38;5092513;28;20513;-67
2021/12/11 05:59:25;;;;;;;3.22;3.03;;;;;;;1.77;100.00;96038.19;5091794;28;20406;-68
2021/12/11 06:02:03;;;;;;;3.47;3.25;;;;;;;1.59;100.00;96045.63;5091949;28;20413;-68
2021/12/11 06:04:32;;;;;;;3.47;3.20;;;;;;;1.51;100.00;96054.28;5092170;28;20751;-67
2021/12/11 06:06:58;;;;;;;3.55;3.35;;;;;;;1.68;100.00;96055.59;5092243;28;20486;-68
2021/12/11 06:09:25;;;;;;;4.13;3.83;;;;;;;1.83;100.00;96058.09;5091106;28;20401;-68
2021/12/11 06:11:54;;;;;;;3.92;3.63;;;;;;;1.72;100.00;96071.53;5091691;28;20439;-68
2021/12/11 06:14:21;;;;;;;4.00;3.70;;;;;;;1.87;100.00;96074.81;5091927;28;20386;-67
2021/12/11 06:16:50;;;;;;;3.95;3.65;;;;;;;1.91;100.00;96072.63;5092065;28;20728;-67
2021/12/11 06:19:19;;;;;;;3.60;3.40;;;;;;;1.81;100.00;96075.56;5090532;28;20394;-67
2021/12/11 06:21:45;;;;;;;3.50;3.30;;;;;;;1.83;100.00;96080.53;5090780;28;20803;-68
2021/12/11 06:24:11;;;;;;;3.70;3.40;;;;;;;1.75;100.00;96091.81;5091965;28;20474;-68
2021/12/11 06:26:37;;;;;;;3.90;3.60;;;;;;;1.92;100.00;96100.06;5091804;28;20473;-68
2021/12/11 06:29:03;;;;;;;4.05;3.75;;;;;;;1.87;100.00;96100.63;5091180;28;20490;-68
2021/12/11 06:31:29;;;;;;;3.63;3.33;;;;;;;1.78;100.00;96109.53;5091890;28;20912;-68
2021/12/11 06:33:55;;;;;;;3.78;3.58;;;;;;;1.73;100.00;96113.66;5091816;28;20378;-68
2021/12/11 06:36:23;;;;;;;4.20;3.90;;;;;;;1.82;100.00;96113.31;5091659;28;20382;-68
2021/12/11 06:38:53;;;;;;;4.35;4.00;;;;;;;1.90;100.00;96126.09;5091141;28;20518;-69
2021/12/11 06:41:25;;;;;;;4.47;4.18;;;;;;;1.93;100.00;96130.88;5091494;28;20392;-68
2021/12/11 06:43:51;;;;;;;5.03;4.50;;;;;;;1.75;100.00;96127.16;5091857;28;20418;-68
2021/12/11 06:46:17;;;;;;;5.80;5.30;;;;;;;1.74;100.00;96125.56;5091700;28;20390;-68
2021/12/11 06:48:43;;;;;;;5.13;4.73;;;;;;;1.52;100.00;96140.28;5091959;28;20417;-68
2021/12/11 06:51:08;;;;;;;5.83;5.33;;;;;;;1.66;100.00;96147.19;5091849;28;20437;-68
2021/12/11 06:53:40;;;;;;;6.00;5.40;;;;;;;1.78;100.00;96144.91;5091577;28;20386;-68
2021/12/11 06:56:08;;;;;;;5.28;4.88;;;;;;;1.56;100.00;96151.88;5091482;28;20389;-68
2021/12/11 06:58:34;;;;;;;5.97;5.38;;;;;;;1.84;100.00;96162.22;5093448;28;20409;-68
2021/12/11 07:01:02;;;;;;;5.60;5.10;;;;;;;1.74;100.00;96165.13;5093198;28;20406;-67
2021/12/11 07:03:28;;;;;;;5.30;4.82;;;;;;;1.42;100.00;96175.97;5093834;28;20829;-67
2021/12/11 07:05:53;;;;;;;6.00;5.50;;;;;;;1.47;100.00;96181.38;5095806;28;20429;-68
2021/12/11 07:08:22;;;;;;;5.90;5.32;;;;;;;1.73;100.00;96183.41;5094998;28;20386;-67
2021/12/11 07:10:47;;;;;;;5.75;5.25;;;;;;;1.40;100.00;96190.81;5094744;28;20743;-68
2021/12/11 07:13:14;;;;;;;6.47;5.88;;;;;;;1.58;100.00;96196.38;5095081;28;20409;-68
2021/12/11 07:15:40;;;;;;;6.32;5.72;;;;;;;1.61;100.00;96201.97;5100581;28;20400;-67
2021/12/11 07:18:06;;;;;;;6.40;5.90;;;;;;;1.65;100.00;96217.91;5088894;28;20412;-69
2021/12/11 07:20:32;;;;;;;7.00;6.32;;;;;;;1.69;100.00;96224.28;5094929;28;20398;-68
2021/12/11 07:22:58;;;;;;;6.67;6.07;;;;;;;1.72;100.00;96233.47;5093778;28;20392;-67
2021/12/11 07:25:38;;;;;;;6.35;5.75;;;;;;;1.82;100.00;96236.53;5094633;28;20386;-68
2021/12/11 07:28:04;;;;;;;5.57;5.07;;;;;;;1.55;100.00;96240.66;5094928;28;20477;-67
2021/12/11 07:30:33;;;;;;;6.82;6.20;;;;;;;1.74;100.00;96249.56;5095224;28;20451;-67
2021/12/11 07:33:01;;;;;;;6.60;6.00;;;;;;;1.79;100.00;96260.13;5093018;28;20402;-67
2021/12/11 07:35:27;;;;;;;6.77;6.13;;;;;;;1.92;100.00;96263.66;5094807;28;20425;-67
2021/12/11 07:37:53;;;;;;;6.78;6.18;;;;;;;1.90;100.00;96267.38;5094318;28;20878;-68
2021/12/11 07:40:25;;;;;;;7.40;6.70;;;;;;;1.79;100.00;96273.84;5094285;28;20746;-68
2021/12/11 07:42:51;;;;;;;6.53;5.93;;;;;;;1.36;100.00;96273.00;5095054;28;20370;-67
2021/12/11 07:45:18;;;;;;;8.20;6.97;;;;;;;1.52;100.00;96277.94;5095033;28;20398;-68
2021/12/11 07:47:44;;;;;;;7.57;6.87;;;;;;;1.55;100.00;96287.94;5093532;28;20422;-69
2021/12/11 07:50:10;;;;;;;7.83;6.93;;;;;;;1.42;100.00;96297.31;5094171;28;20848;-68
2021/12/11 07:52:36;;;;;;;8.60;7.72;;;;;;;1.45;100.00;96302.13;5094757;28;20894;-69
2021/12/11 07:55:01;;;;;;;8.57;7.68;;;;;;;1.48;100.00;96312.88;5094196;28;20394;-68
2021/12/11 07:57:28;;;;;;;11.30;9.98;;;;;;;1.82;100.00;96316.63;5094460;28;20414;-68
2021/12/11 07:59:53;;;;;;;7.70;6.97;;;;;;;1.95;100.00;96327.88;5094566;28;20981;-68
2021/12/11 08:02:19;;;;;;;7.80;6.90;;;;;;;1.91;100.00;96329.22;5093136;28;20479;-67
2021/12/11 08:04:44;;;;;;;7.57;6.72;;;;;;;1.68;100.00;96333.75;5075635;28;20482;-67
2021/12/11 08:07:10;;;;;;;9.40;7.30;;;;;;;1.75;100.00;96341.56;5094297;28;20390;-68
2021/12/11 08:09:36;;;;;;;8.43;7.63;;;;;;;1.76;100.00;96346.56;5092280;28;20858;-68
2021/12/11 08:12:01;;;;;;;9.07;8.17;;;;;;;1.89;100.00;96357.03;5092986;28;20394;-67
2021/12/11 08:14:27;;;;;;;8.87;8.07;;;;;;;1.82;100.00;96355.38;5094185;28;20394;-67
2021/12/11 08:16:56;;;;;;;9.70;8.37;;;;;;;1.88;100.00;96364.97;5094136;28;20893;-68
2021/12/11 08:19:26;;;;;;;8.70;7.70;;;;;;;2.03;100.00;96365.72;5094246;28;20398;-67
2021/12/11 08:21:54;;;;;;;9.27;7.72;;;;;;;1.99;100.00;96373.06;5093559;28;20418;-68
2021/12/11 08:24:21;;;;;;;11.10;8.32;;;;;;;1.87;100.00;96381.44;5093684;28;20405;-68
2021/12/11 08:26:49;;;;;;;9.80;7.60;;;;;;;1.80;100.00;96390.91;5093770;28;20402;-69
2021/12/11 08:29:16;;;;;;;8.80;7.90;;;;;;;1.95;100.00;96392.47;5094397;28;20411;-68
2021/12/11 08:31:45;;;;;;;8.93;8.02;;;;;;;2.17;100.00;96401.06;5094041;28;20415;-67
2021/12/11 08:34:10;;;;;;;8.63;7.72;;;;;;;1.99;100.00;96398.88;5093457;28;20481;-67
2021/12/11 08:36:37;;;;;;;9.82;8.20;;;;;;;2.04;100.00;96409.47;5093602;28;20866;-67
2021/12/11 08:39:05;;;;;;;8.68;7.63;;;;;;;2.07;100.00;96406.50;5093657;28;20390;-67
2021/12/11 08:41:31;;;;;;;10.15;8.20;;;;;;;1.96;100.00;96414.75;5093494;28;20803;-66
2021/12/11 08:44:03;;;;;;;8.50;7.60;;;;;;;2.00;100.00;96415.19;5093433;28;20410;-67
2021/12/11 08:46:31;;;;;;;8.27;7.40;;;;;;;2.11;100.00;96425.06;5093621;28;20393;-66
2021/12/11 08:48:59;;;;;;;8.70;7.80;;;;;;;2.15;100.00;96430.66;5093377;28;20401;-68
2021/12/11 08:51:30;;;;;;;8.80;7.75;;;;;;;1.96;100.00;96438.00;5092907;28;20469;-67
2021/12/11 08:53:56;;;;;;;10.65;7.90;;;;;;;2.07;100.00;96440.13;5093854;28;20443;-67
2021/12/11 08:56:23;;;;;;;8.47;7.57;;;;;;;2.12;100.00;96446.53;5092773;28;20390;-69
2021/12/11 08:58:50;;;;;;;9.07;8.10;;;;;;;2.34;100.00;96443.00;5093100;28;20497;-68
2021/12/11 09:01:26;;;;;;;10.23;8.33;;;;;;;2.34;100.00;96451.53;5092640;28;20417;-70
2021/12/11 09:04:03;;;;;;;10.43;8.05;;;;;;;2.22;100.00;96460.78;5093143;28;20393;-69
2021/12/11 09:06:58;;;;;;;10.82;8.32;;;;;;;2.27;100.00;96462.81;5092835;28;20398;-68
2021/12/11 09:09:28;;;;;;;9.90;8.30;;;;;;;2.52;99.75;96461.47;5092550;28;20398;-69
2021/12/11 09:12:04;;;;;;;9.35;8.38;;;;;;;2.41;100.00;96480.06;5092949;28;20386;-69
2021/12/11 09:14:38;;;;;;;9.10;8.07;;;;;;;2.32;100.00;96481.16;5093251;28;20396;-68
2021/12/11 09:17:15;;;;;;;11.40;9.02;;;;;;;2.58;99.24;96485.81;5093107;28;20417;-67
2021/12/11 09:19:49;;;;;;;9.82;8.23;;;;;;;2.72;98.96;96480.59;5092047;28;20386;-68
2021/12/11 09:22:23;;;;;;;11.60;9.20;;;;;;;2.52;100.00;96479.56;5092472;28;20439;-68
2021/12/11 09:24:59;;;;;;;10.07;8.32;;;;;;;2.55;99.57;96488.78;5092359;28;20382;-68
2021/12/11 09:27:27;;;;;;;8.98;8.07;;;;;;;2.52;100.00;96487.34;5092649;28;20390;-69
2021/12/11 09:30:02;;;;;;;8.10;7.30;;;;;;;2.68;99.44;96494.84;5092563;28;20432;-68
2021/12/11 09:32:44;;;;;;;8.32;7.53;;;;;;;2.51;100.00;96504.63;5092292;28;20469;-68
2021/12/11 09:35:21;;;;;;;8.40;7.47;;;;;;;2.56;99.13;96506.69;5083377;28;20694;-69
2021/12/11 09:37:51;;;;;;;8.20;7.40;;;;;;;2.80;98.56;96506.31;5092375;28;20417;-68
2021/12/11 09:40:38;;;;;;;8.68;7.60;;;;;;;2.66;98.76;96514.16;5092504;28;20382;-68
2021/12/11 09:43:03;;;;;;;8.20;7.30;;;;;;;2.80;98.09;96516.69;5087319;28;20386;-70
2021/12/11 09:45:42;;;;;;;8.10;6.60;;;;;;;2.88;98.13;96520.94;5090487;28;20394;-69
2021/12/11 09:48:15;;;;;;;7.32;6.63;;;;;;;2.66;99.69;96524.50;5080176;28;20468;-69
2021/12/11 09:50:50;;;;;;;7.90;6.75;;;;;;;3.01;97.98;96525.44;5089212;28;20535;-69
2021/12/11 09:53:20;;;;;;;7.22;6.53;;;;;;;2.98;96.81;96531.78;5092177;28;20455;-68
2021/12/11 09:55:48;;;;;;;8.50;7.65;;;;;;;3.08;96.90;96534.84;5091197;28;20404;-70
2021/12/11 09:58:21;;;;;;;7.60;6.87;;;;;;;3.19;95.58;96541.31;5073779;28;20498;-68
2021/12/11 10:00:55;;;;;;;7.53;6.72;;;;;;;3.28;94.96;96546.22;5092077;28;20452;-69
2021/12/11 10:03:27;;;;;;;7.68;6.88;;;;;;;3.26;94.88;96542.19;5091747;28;20402;-70
2021/12/11 10:06:11;;;;;;;7.65;6.85;;;;;;;3.40;95.96;96554.25;5092229;28;20386;-68
2021/12/11 10:08:40;;;;;;;7.35;6.63;;;;;;;3.46;94.52;96555.28;5091990;28;20394;-71
2021/12/11 10:11:20;;;;;;;6.32;5.72;;;;;;;3.26;95.36;96563.72;5091009;28;20497;-70
2021/12/11 10:13:59;;;;;;;6.85;6.15;;;;;;;3.12;96.08;96567.16;5091698;28;20738;-69
2021/12/11 10:16:29;;;;;;;6.53;5.25;;;;;;;3.22;94.33;96564.28;5091232;28;20386;-70
2021/12/11 10:18:55;;;;;;;7.07;6.20;;;;;;;3.49;95.53;96563.50;5091709;28;20421;-69
2021/12/11 10:21:33;;;;;;;6.72;6.03;;;;;;;3.77;93.35;96568.69;5091550;28;20378;-70
2021/12/11 10:24:02;;;;;;;6.50;5.90;;;;;;;3.71;93.21;96564.25;5091549;28;20429;-69
2021/12/11 10:26:29;;;;;;;5.55;5.05;;;;;;;3.54;92.63;96565.53;5091936;28;20401;-68
2021/12/11 10:28:58;;;;;;;5.80;5.30;;;;;;;3.43;93.21;96572.03;5091402;28;20930;-67
2021/12/11 10:31:29;;;;;;;5.53;5.03;;;;;;;3.62;91.24;96568.75;5091703;28;20398;-68
2021/12/11 10:33:57;;;;;;;5.50;5.00;;;;;;;3.39;91.97;96565.63;5090705;28;20807;-67
2021/12/11 10:36:26;;;;;;;5.47;4.97;;;;;;;3.59;92.50;96570.94;5091415;28;20401;-66
2021/12/11 10:38:52;;;;;;;6.38;4.63;;;;;;;3.69;91.55;96574.00;5091609;28;20416;-67
2021/12/11 10:41:19;;;;;;;5.18;4.68;;;;;;;3.65;91.22;96573.59;5091697;28;20386;-66
2021/12/11 10:44:08;;;;;;;5.63;4.75;;;;;;;3.58;91.51;96577.91;5091180;28;20683;-67
2021/12/11 10:46:42;;;;;;;5.32;4.55;;;;;;;3.59;90.87;96579.53;5091456;28;20394;-69
2021/12/11 10:49:11;;;;;;;5.55;4.43;;;;;;;3.60;90.13;96582.91;5091706;28;20435;-68
2021/12/11 10:51:45;;;;;;;5.47;4.57;;;;;;;3.78;90.43;96591.03;5091395;28;20554;-67
2021/12/11 10:54:14;;;;;;;4.63;4.13;;;;;;;3.90;88.86;96591.31;5091558;28;20406;-67
2021/12/11 10:56:40;;;;;;;4.88;4.22;;;;;;;3.90;89.36;96591.31;5091430;28;20390;-67
2021/12/11 10:59:15;;;;;;;4.63;3.80;;;;;;;4.03;89.22;96592.19;5084097;28;20431;-68
2021/12/11 11:01:58;;;;;;;4.40;4.00;;;;;;;4.06;87.64;96593.59;5091382;28;20390;-66
2021/12/11 11:04:28;;;;;;;4.50;4.10;;;;;;;4.11;88.75;96597.22;5090875;28;20402;-67
2021/12/11 11:06:54;;;;;;;4.85;4.22;;;;;;;3.94;88.39;96608.09;5091362;28;20485;-67
2021/12/11 11:09:22;;;;;;;4.47;4.07;;;;;;;3.84;87.85;96611.03;5090243;28;20802;-68
2021/12/11 11:11:51;;;;;;;4.72;4.32;;;;;;;4.05;88.90;96617.94;5091312;28;20435;-66
2021/12/11 11:14:18;;;;;;;4.45;4.00;;;;;;;3.89;87.80;96618.22;5090812;28;20394;-67
2021/12/11 11:16:51;;;;;;;4.20;3.80;;;;;;;3.61;88.78;96623.38;5092471;28;20192;-67
2021/12/11 11:19:17;;;;;;;;;;;;;;;3.80;89.34;96624.50;5092808;28;20499;-66
2021/12/11 11:21:44;;;;;;;;;;;;;;;3.83;88.28;96624.97;5092611;28;19995;-68
2021/12/11 11:24:11;;;;;;;;;;;;;;;3.75;88.67;96627.69;5072853;28;19920;-67
2021/12/11 11:26:38;;;;;;;;;;;;;;;3.83;89.38;96631.94;5072759;28;19916;-67
2021/12/11 11:29:11;;;;;;;;;;;;;;;3.60;87.61;96627.78;5085668;28;20010;-68
2021/12/11 11:31:37;;;;;;;;;;;;;;;3.80;86.90;96637.47;5088079;28;19919;-67
2021/12/11 11:34:04;;;;;;;;;;;;;;;3.85;86.98;96635.94;5090735;28;19960;-67
2021/12/11 11:36:31;;;;;;;;;;;;;;;3.90;86.50;96640.56;5088462;28;19990;-68
2021/12/11 11:38:58;;;;;;;;;;;;;;;3.63;86.02;96649.91;5089677;28;19931;-67
2021/12/11 11:41:25;;;;;;;;;;;;;;;3.51;86.38;96647.00;5091275;28;19924;-67
2021/12/11 11:43:50;;;;;;;;;;;;;;;3.57;86.11;96650.63;5090837;28;19915;-68
2021/12/11 11:46:16;;;;;;;;;;;;;;;3.49;86.36;96666.31;5093889;28;20006;-68
2021/12/11 11:48:43;;;;;;;;;;;;;;;3.51;86.27;96670.31;5093556;28;20308;-68
2021/12/11 11:51:11;;;;;;;;;;;;;;;3.57;85.94;96673.97;5077967;28;20382;-69
2021/12/11 11:53:36;;;;;;;;;;;;;;;3.77;85.32;96682.72;5093994;28;19916;-67
2021/12/11 11:56:04;;;;;;;;;;;;;;;3.92;84.97;96693.81;5094502;28;19923;-68
2021/12/11 11:58:31;;;;;;;;;;;;;;;3.82;84.93;96698.53;5094996;28;19928;-68
2021/12/11 12:00:59;;;;;;;;;;;;;;;3.80;83.71;96697.91;5094513;28;19920;-67
2021/12/11 12:03:26;;;;;;;;;;;;;;;3.71;82.82;96706.78;5094810;28;19916;-68
2021/12/11 12:05:55;;;;;;;;;;;;;;;3.74;84.35;96709.81;5094700;28;20250;-68